Time;durP1;ratioP1;P1;durP2;ratioP2;P2;SDS_P1;SDS_P2;PMS_P1;PMS_P2;Temp;Humidity;BMP_temperature;BMP_pressure;BME280_temperature;BME280_humidity;BME280_pressure;Samples;Min_cycle;Max_cycle;Signal;HPM_P1;HPM_P2
2022/09/25 00:00:57;;;;;;;;;;;;;;;12.58;100.00;97953.80;1674317;84;20249;-88
2022/09/25 00:03:27;;;;;;;;;;;;;;;12.58;100.00;97949.87;1674009;84;20500;-88
2022/09/25 00:05:55;;;;;;;;;;;;;;;12.57;100.00;97945.09;1673537;83;21978;-89
2022/09/25 00:08:21;;;;;;;;;;;;;;;12.48;100.00;97946.38;1675141;84;26698;-89
2022/09/25 00:10:49;;;;;;;;;;;;;;;12.44;100.00;97938.38;1674992;85;20275;-85
2022/09/25 00:13:16;;;;;;;;;;;;;;;12.46;100.00;97938.62;1675701;84;20267;-84
2022/09/25 00:15:46;;;;;;;;;;;;;;;12.46;100.00;97935.16;1674934;84;24735;-85
2022/09/25 00:18:13;;;;;;;;;;;;;;;12.41;100.00;97932.09;1676668;84;22706;-85
2022/09/25 00:20:41;;;;;;;;;;;;;;;12.38;100.00;97933.17;1679168;84;21370;-84
2022/09/25 00:23:08;;;;;;;;;;;;;;;12.40;100.00;97934.37;1675641;84;24017;-84
2022/09/25 00:25:36;;;;;;;;;;;;;;;12.38;100.00;97933.69;1661167;84;20678;-85
2022/09/25 00:28:02;;;;;;;;;;;;;;;12.39;100.00;97934.01;1676532;84;24821;-85
2022/09/25 00:30:28;;;;;;;;;;;;;;;12.40;100.00;97926.49;1679721;84;21966;-88
2022/09/25 00:32:54;;;;;;;;;;;;;;;12.41;100.00;97930.79;1677191;84;21049;-88
2022/09/25 00:35:20;;;;;;;;;;;;;;;12.42;100.00;97922.80;1675503;84;24412;-89
2022/09/25 00:37:47;;;;;;;;;;;;;;;12.42;100.00;97921.95;1675768;84;32508;-88
2022/09/25 00:40:19;;;;;;;;;;;;;;;12.42;100.00;97931.14;1677313;84;20305;-88
2022/09/25 00:42:49;;;;;;;;;;;;;;;12.46;100.00;97922.04;1677566;84;22181;-88
2022/09/25 00:45:16;;;;;;;;;;;;;;;12.44;100.00;97922.16;1689307;83;25943;-88
2022/09/25 00:48:01;;;;;;;;;;;;;;;12.38;100.00;97928.44;1689200;83;24585;-88
2022/09/25 00:50:32;;;;;;;;;;;;;;;12.36;100.00;97919.86;1689143;83;20291;-88
2022/09/25 00:53:02;;;;;;;;;;;;;;;12.25;100.00;97924.70;1691103;84;26223;-89
2022/09/25 00:55:29;;;;;;;;;;;;;;;12.24;100.00;97920.89;1686493;84;22061;-88
2022/09/25 00:58:01;;;;;;;;;;;;;;;12.19;100.00;97916.52;1688208;83;26676;-88
2022/09/25 01:00:34;;;;;;;;;;;;;;;12.10;100.00;97915.52;1693136;83;25228;-89
2022/09/25 01:03:04;;;;;;;;;;;;;;;12.07;100.00;97913.13;1679217;83;20204;-89
2022/09/25 01:05:31;;;;;;;;;;;;;;;12.06;100.00;97914.91;1690739;83;25548;-87
2022/09/25 01:07:59;;;;;;;;;;;;;;;12.06;100.00;97909.67;1688402;83;21978;-87
2022/09/25 01:10:27;;;;;;;;;;;;;;;12.06;100.00;97903.59;1691639;84;26036;-87
2022/09/25 01:12:53;;;;;;;;;;;;;;;12.05;100.00;97904.10;1685399;83;24444;-87
2022/09/25 01:15:21;;;;;;;;;;;;;;;12.05;100.00;97905.89;1689877;84;20262;-87
2022/09/25 01:18:02;;;;;;;;;;;;;;;12.07;100.00;97901.33;1687904;83;25903;-88
2022/09/25 01:20:30;;;;;;;;;;;;;;;12.14;100.00;97905.10;1690500;83;22097;-88
2022/09/25 01:23:17;;;;;;;;;;;;;;;12.22;100.00;97899.22;1691220;83;25931;-88
2022/09/25 01:26:00;;;;;;;;;;;;;;;12.31;100.00;97903.67;1690090;83;24608;-88
2022/09/25 01:28:40;;;;;;;;;;;;;;;12.34;100.00;97897.67;1686647;83;20572;-88
2022/09/25 01:31:08;;;;;;;;;;;;;;;12.37;100.00;97895.28;1692019;83;24774;-88
2022/09/25 01:33:37;;;;;;;;;;;;;;;12.40;100.00;97901.09;1689320;83;22796;-89
2022/09/25 01:36:05;;;;;;;;;;;;;;;12.42;100.00;97902.28;1689790;83;26627;-89
2022/09/25 01:38:32;;;;;;;;;;;;;;;12.43;100.00;97903.95;1695499;83;24382;-89
2022/09/25 01:41:09;;;;;;;;;;;;;;;12.45;100.00;97902.00;1692063;83;20972;-88
2022/09/25 01:43:39;;;;;;;;;;;;;;;12.42;100.00;97897.86;1692962;81;24799;-88
2022/09/25 01:46:21;;;;;;;;;;;;;;;12.43;100.00;97904.78;1713140;82;21868;-89
2022/09/25 01:48:48;;;;;;;;;;;;;;;12.43;100.00;97910.02;1709157;82;25989;-88
2022/09/25 01:51:28;;;;;;;;;;;;;;;12.42;100.00;97908.36;1710174;82;24564;-89
2022/09/25 01:53:56;;;;;;;;;;;;;;;12.39;100.00;97908.60;1705070;82;20231;-89
2022/09/25 01:56:31;;;;;;;;;;;;;;;12.39;100.00;97909.08;1686867;83;24746;-89
2022/09/25 01:58:58;;;;;;;;;;;;;;;12.38;100.00;97910.88;1715515;81;21501;-89
2022/09/25 02:01:28;;;;;;;;;;;;;;;12.38;100.00;97908.76;1690724;83;25965;-89
2022/09/25 02:03:56;;;;;;;;;;;;;;;12.39;100.00;97909.08;1709244;81;24444;-89
2022/09/25 02:06:25;;;;;;;;;;;;;;;12.39;100.00;97905.14;1711191;81;20172;-88
2022/09/25 02:08:52;;;;;;;;;;;;;;;12.36;100.00;97906.25;1711583;81;24850;-89
2022/09/25 02:11:27;;;;;;;;;;;;;;;12.38;100.00;97908.76;1711811;81;22062;-89
2022/09/25 02:13:56;;;;;;;;;;;;;;;12.36;100.00;97911.98;1710348;81;26039;-89
2022/09/25 02:16:24;;;;;;;;;;;;;;;12.33;100.00;97910.95;1689063;83;24508;-89
2022/09/25 02:21:56;;;;;;;;;;;;;;;12.32;100.00;97907.97;1688636;83;24814;-88
2022/09/25 02:24:45;;;;;;;;;;;;;;;12.33;100.00;97904.38;1696619;83;21990;-89
2022/09/25 02:27:09;;;;;;;;;;;;;;;12.36;100.00;97902.80;1726578;82;26633;-89
2022/09/25 02:29:35;;;;;;;;;;;;;;;12.36;100.00;97901.48;1725511;82;24531;-89
2022/09/25 02:32:04;;;;;;;;;;;;;;;12.36;100.00;97906.73;1696729;82;20173;-88
2022/09/25 02:34:32;;;;;;;;;;;;;;;12.37;100.00;97903.16;1685448;83;25702;-89
2022/09/25 02:37:15;;;;;;;;;;;;;;;12.38;100.00;97910.07;1725359;82;22042;-89
2022/09/25 02:39:42;;;;;;;;;;;;;;;12.36;100.00;97900.17;1720205;81;26055;-89
2022/09/25 02:42:10;;;;;;;;;;;;;;;12.33;100.00;97903.08;1722960;81;24547;-84
2022/09/25 02:44:50;;;;;;;;;;;;;;;12.36;100.00;97904.11;1688285;83;20152;-85
2022/09/25 02:47:22;;;;;;;;;;;;;;;12.36;100.00;97902.32;1666362;82;24824;-85
2022/09/25 02:52:54;;;;;;;;;;;;;;;12.35;100.00;97905.06;1703386;82;26236;-84
2022/09/25 02:55:26;;;;;;;;;;;;;;;12.33;100.00;97898.63;1706709;82;24740;-84
2022/09/25 02:57:54;;;;;;;;;;;;;;;12.36;100.00;97902.80;1701486;82;20220;-84
2022/09/25 03:00:22;;;;;;;;;;;;;;;12.38;100.00;97900.89;1706481;82;24805;-84
2022/09/25 03:02:55;;;;;;;;;;;;;;;12.40;100.00;97894.53;1706359;82;22767;-84
2022/09/25 03:05:22;;;;;;;;;;;;;;;12.38;100.00;97899.06;1706771;82;25993;-84
2022/09/25 03:08:41;;;;;;;;;;;;;;;12.40;100.00;97895.00;1704346;82;24638;-86
2022/09/25 03:10:22;;;;;;;;;;;;;;;12.40;100.00;97895.00;1685167;82;20318;-86
2022/09/25 03:12:48;;;;;;;;;;;;;;;12.33;100.00;97884.70;1714754;81;24828;-86
2022/09/25 03:15:22;;;;;;;;;;;;;;;12.44;100.00;97884.11;1714862;82;20241;-87
2022/09/25 03:17:49;;;;;;;;;;;;;;;12.47;100.00;97888.27;1713670;82;25987;-88
2022/09/25 03:20:15;;;;;;;;;;;;;;;12.44;100.00;97890.67;1708729;82;24427;-87
2022/09/25 03:22:47;;;;;;;;;;;;;;;12.45;100.00;97890.19;1708960;82;20262;-88
2022/09/25 03:25:18;;;;;;;;;;;;;;;12.45;100.00;97890.19;1707739;83;24918;-89
2022/09/25 03:27:46;;;;;;;;;;;;;;;12.45;100.00;97888.88;1704402;82;22164;-89
2022/09/25 03:30:14;;;;;;;;;;;;;;;12.42;100.00;97886.53;1709075;83;26083;-89
2022/09/25 03:32:52;;;;;;;;;;;;;;;12.40;100.00;97884.51;1710257;82;24494;-89
2022/09/25 03:35:24;;;;;;;;;;;;;;;12.39;100.00;97887.61;1708649;82;20242;-89
2022/09/25 03:37:58;;;;;;;;;;;;;;;12.39;100.00;97884.16;1705880;82;25616;-89
2022/09/25 03:40:27;;;;;;;;;;;;;;;12.39;100.00;97881.53;1710888;82;23021;-89
2022/09/25 03:42:53;;;;;;;;;;;;;;;12.36;100.00;97887.05;1708376;82;26092;-88
2022/09/25 03:45:19;;;;;;;;;;;;;;;12.35;100.00;97882.28;1707586;82;20267;-88
2022/09/25 03:47:46;;;;;;;;;;;;;;;12.36;100.00;97881.33;1710433;82;20336;-89
2022/09/25 03:50:12;;;;;;;;;;;;;;;12.37;100.00;97884.78;1710555;82;24747;-89
2022/09/25 03:52:38;;;;;;;;;;;;;;;12.37;100.00;97882.99;1706472;82;20251;-89
2022/09/25 03:55:06;;;;;;;;;;;;;;;12.36;100.00;97883.12;1708796;82;21071;-88
2022/09/25 03:57:34;;;;;;;;;;;;;;;12.34;100.00;97880.61;1707552;82;25262;-88
2022/09/25 04:00:02;;;;;;;;;;;;;;;12.34;100.00;97887.17;1702038;82;20217;-89
2022/09/25 04:02:28;;;;;;;;;;;;;;;12.35;100.00;97888.01;1709786;82;25434;-89
2022/09/25 04:04:59;;;;;;;;;;;;;;;12.34;100.00;97891.11;1704658;82;22004;-89
2022/09/25 04:07:25;;;;;;;;;;;;;;;12.33;100.00;97897.83;1708597;81;26112;-89
2022/09/25 04:09:50;;;;;;;;;;;;;;;12.33;100.00;97896.00;1709028;82;20309;-89
2022/09/25 04:12:16;;;;;;;;;;;;;;;12.32;100.00;97903.55;1711358;82;20849;-89
2022/09/25 04:14:44;;;;;;;;;;;;;;;12.34;100.00;97898.98;1706840;82;20292;-89
2022/09/25 04:17:10;;;;;;;;;;;;;;;12.35;100.00;97891.95;1710030;82;22010;-89
2022/09/25 04:19:40;;;;;;;;;;;;;;;12.37;100.00;97891.34;1708867;82;26072;-88
2022/09/25 04:22:06;;;;;;;;;;;;;;;12.36;100.00;97898.38;1712694;82;24516;-89
2022/09/25 04:24:48;;;;;;;;;;;;;;;12.37;100.00;97901.84;1710594;81;20326;-88
2022/09/25 04:27:18;;;;;;;;;;;;;;;12.35;100.00;97891.47;1708362;82;24319;-89
2022/09/25 04:29:45;;;;;;;;;;;;;;;12.35;100.00;97904.59;1702900;82;23233;-89
2022/09/25 04:34:57;;;;;;;;;;;;;;;12.30;100.00;97902.84;1706505;82;24448;-89
2022/09/25 04:37:25;;;;;;;;;;;;;;;12.31;100.00;97908.92;1710746;82;20318;-88
2022/09/25 04:39:53;;;;;;;;;;;;;;;12.32;100.00;97900.92;1710085;82;25810;-89
2022/09/25 04:42:23;;;;;;;;;;;;;;;12.34;100.00;97900.77;1708915;81;22006;-88
2022/09/25 04:44:47;;;;;;;;;;;;;;;12.36;100.00;97903.63;1707113;82;26142;-88
2022/09/25 04:47:13;;;;;;;;;;;;;;;12.38;100.00;97899.58;1712243;82;20306;-88
2022/09/25 04:49:41;;;;;;;;;;;;;;;12.38;100.00;97899.58;1708462;81;20277;-88
2022/09/25 04:52:07;;;;;;;;;;;;;;;12.38;100.00;97896.44;1715850;81;24684;-88
2022/09/25 04:54:34;;;;;;;;;;;;;;;12.41;100.00;97892.73;1709849;82;21454;-88
2022/09/25 04:57:01;;;;;;;;;;;;;;;12.41;100.00;97892.26;1707258;81;26031;-88
2022/09/25 04:59:28;;;;;;;;;;;;;;;12.43;100.00;97895.59;1715484;81;24393;-88
2022/09/25 05:01:54;;;;;;;;;;;;;;;12.45;100.00;97891.50;1713940;82;20236;-88
2022/09/25 05:04:19;;;;;;;;;;;;;;;12.42;100.00;97889.16;1709504;82;20309;-86
2022/09/25 05:06:46;;;;;;;;;;;;;;;12.45;100.00;97890.19;1716353;81;20829;-87
2022/09/25 05:09:12;;;;;;;;;;;;;;;12.47;100.00;97888.27;1711613;82;25348;-86
2022/09/25 05:11:38;;;;;;;;;;;;;;;12.49;100.00;97892.92;1710995;81;20502;-87
2022/09/25 05:14:04;;;;;;;;;;;;;;;12.49;100.00;97891.10;1712731;82;20324;-87
2022/09/25 05:16:30;;;;;;;;;;;;;;;12.51;100.00;97892.29;1710703;81;20791;-88
2022/09/25 05:18:56;;;;;;;;;;;;;;;12.50;100.00;97891.45;1710458;81;20326;-87
2022/09/25 05:21:22;;;;;;;;;;;;;;;12.53;100.00;97892.52;1712319;81;20965;-87
2022/09/25 05:23:49;;;;;;;;;;;;;;;12.57;100.00;97894.39;1717368;82;20331;-87
2022/09/25 05:26:16;;;;;;;;;;;;;;;12.59;100.00;97897.72;1717172;81;20273;-88
2022/09/25 05:28:42;;;;;;;;;;;;;;;12.59;100.00;97892.47;1712794;81;24840;-88
2022/09/25 05:31:08;;;;;;;;;;;;;;;12.60;100.00;97896.73;1719396;81;22159;-88
2022/09/25 05:33:36;;;;;;;;;;;;;;;12.58;100.00;97891.64;1706373;82;21024;-88
2022/09/25 05:36:03;;;;;;;;;;;;;;;12.59;100.00;97885.91;1716401;81;24487;-88
2022/09/25 05:38:36;;;;;;;;;;;;;;;12.59;100.00;97888.53;1717207;82;20229;-88
2022/09/25 05:41:08;;;;;;;;;;;;;;;12.58;100.00;97890.33;1716457;81;25441;-87
2022/09/25 05:43:49;;;;;;;;;;;;;;;12.56;100.00;97889.62;1709528;81;22518;-87
2022/09/25 05:46:16;;;;;;;;;;;;;;;12.58;100.00;97890.80;1713267;82;25854;-88
2022/09/25 05:48:47;;;;;;;;;;;;;;;12.59;100.00;97892.47;1714343;82;25333;-87
2022/09/25 05:51:16;;;;;;;;;;;;;;;12.60;100.00;97888.05;1711185;82;20476;-88
2022/09/25 05:53:42;;;;;;;;;;;;;;;12.59;100.00;97888.53;1706674;82;24602;-87
2022/09/25 05:56:08;;;;;;;;;;;;;;;12.67;100.00;97892.63;1702160;82;22046;-87
2022/09/25 05:58:34;;;;;;;;;;;;;;;12.65;100.00;97886.70;1704991;82;21207;-88
2022/09/25 06:01:02;;;;;;;;;;;;;;;12.66;100.00;97888.81;1709708;82;20253;-88
2022/09/25 06:03:28;;;;;;;;;;;;;;;12.66;100.00;97889.64;1712074;81;20353;-90
2022/09/25 06:06:00;;;;;;;;;;;;;;;12.73;100.00;97888.63;1711692;82;24868;-89
2022/09/25 06:08:29;;;;;;;;;;;;;;;12.76;100.00;97887.91;1713488;82;21999;-89
2022/09/25 06:10:55;;;;;;;;;;;;;;;12.82;100.00;97885.23;1714181;81;26616;-88
2022/09/25 06:13:24;;;;;;;;;;;;;;;12.83;100.00;97889.01;1702116;82;24463;-88
2022/09/25 06:15:51;;;;;;;;;;;;;;;12.85;100.00;97892.82;1708957;82;20247;-88
2022/09/25 06:18:22;;;;;;;;;;;;;;;12.88;100.00;97888.59;1711255;82;25785;-88
2022/09/25 06:21:03;;;;;;;;;;;;;;;12.93;100.00;97891.17;1697496;82;20182;-88
2022/09/25 06:23:35;;;;;;;;;;;;;;;12.94;100.00;97886.75;1710418;82;26129;-88
2022/09/25 06:26:03;;;;;;;;;;;;;;;12.96;100.00;97882.20;1712617;81;24508;-88
2022/09/25 06:28:29;;;;;;;;;;;;;;;13.00;100.00;97884.90;1706259;82;20289;-87
2022/09/25 06:30:57;;;;;;;;;;;;;;;13.07;100.00;97886.02;1710547;82;24802;-87
2022/09/25 06:33:23;;;;;;;;;;;;;;;13.14;100.00;97882.41;1698711;82;22190;-88
2022/09/25 06:35:49;;;;;;;;;;;;;;;13.18;100.00;97880.68;1709981;81;25564;-88
2022/09/25 06:38:16;;;;;;;;;;;;;;;13.22;100.00;97888.63;1711763;81;20250;-88
2022/09/25 06:40:44;;;;;;;;;;;;;;;13.27;100.00;97876.39;1709212;81;20228;-87
2022/09/25 06:43:12;;;;;;;;;;;;;;;13.32;100.00;97886.00;1712652;82;24927;-88
2022/09/25 06:45:38;;;;;;;;;;;;;;;13.34;100.00;97893.28;1717449;81;22682;-87
2022/09/25 06:48:11;;;;;;;;;;;;;;;13.31;100.00;97879.11;1731397;82;26155;-88
2022/09/25 06:50:47;;;;;;;;;;;;;;;13.31;100.00;97883.05;1725593;81;24393;-89
2022/09/25 06:53:17;;;;;;;;;;;;;;;13.31;100.00;97881.73;1724057;82;20295;-90
2022/09/25 06:55:44;;;;;;;;;;;;;;;13.32;100.00;97884.20;1725972;82;24800;-89
2022/09/25 06:58:29;;;;;;;;;;;;;;;13.34;100.00;97889.34;1729548;81;22035;-88
2022/09/25 07:00:55;;;;;;;;;;;;;;;13.37;100.00;97887.73;1727050;82;26066;-88
2022/09/25 07:03:44;;;;;;;;;;;;;;;13.43;100.00;97888.50;1728538;82;20275;-88
2022/09/25 07:06:25;;;;;;;;;;;;;;;13.44;100.00;97884.08;1719323;82;20519;-88
2022/09/25 07:08:51;;;;;;;;;;;;;;;13.34;100.00;97879.66;1718575;81;24765;-88
2022/09/25 07:11:34;;;;;;;;;;;;;;;13.34;100.00;97880.97;1722565;81;21987;-88
2022/09/25 07:13:57;;;;;;;;;;;;;;;13.40;100.00;97887.47;1727144;82;26240;-89
2022/09/25 07:16:35;;;;;;;;;;;;;;;13.44;100.00;97884.08;1726881;81;25379;-89
2022/09/25 07:19:03;;;;;;;;;;;;;;;13.36;100.00;97875.07;1723834;81;20158;-89
2022/09/25 07:21:31;;;;;;;;;;;;;;;13.31;100.00;97874.66;1723838;81;24824;-88
2022/09/25 07:23:57;;;;;;;;;;;;;;;13.24;100.00;97876.20;1727863;81;23511;-88
2022/09/25 07:26:25;;;;;;;;;;;;;;;13.24;100.00;97877.98;1690185;81;26066;-89
2022/09/25 07:29:05;;;;;;;;;;;;;;;13.31;100.00;97873.34;1725793;81;24427;-88
2022/09/25 07:31:32;;;;;;;;;;;;;;;13.38;100.00;97873.63;1724746;82;20178;-88
2022/09/25 07:34:01;;;;;;;;;;;;;;;13.40;100.00;97867.76;1725684;82;24812;-88
2022/09/25 07:36:34;;;;;;;;;;;;;;;13.44;100.00;97871.77;1721493;81;21674;-88
2022/09/25 07:39:00;;;;;;;;;;;;;;;13.44;100.00;97873.08;1732029;82;26961;-88
2022/09/25 07:41:26;;;;;;;;;;;;;;;13.54;100.00;97867.33;1722924;82;23924;-88
2022/09/25 07:43:56;;;;;;;;;;;;;;;13.66;100.00;97864.91;1723901;82;20321;-88
2022/09/25 07:46:31;;;;;;;;;;;;;;;13.76;100.00;97859.14;1720266;81;24853;-88
2022/09/25 07:49:01;;;;;;;;;;;;;;;13.76;100.00;97860.45;1722891;82;23020;-88
2022/09/25 07:51:33;;;;;;;;;;;;;;;13.77;100.00;97861.28;1721746;82;26220;-88
2022/09/25 07:54:05;;;;;;;;;;;;;;;13.82;100.00;97859.06;1725806;82;24399;-88
2022/09/25 07:56:38;;;;;;;;;;;;;;;13.87;100.00;97866.52;1689589;83;20558;-88
2022/09/25 07:59:06;;;;;;;;;;;;;;;13.97;100.00;97866.02;1714954;81;24809;-88
2022/09/25 08:01:32;;;;;;;;;;;;;;;14.12;100.00;97865.93;1703259;82;22034;-87
2022/09/25 08:04:02;;;;;;;;;;;;;;;14.27;100.00;97868.92;1699861;83;20963;-88
2022/09/25 08:06:31;;;;;;;;;;;;;;;14.25;100.00;97872.52;1708117;83;24379;-88
2022/09/25 08:09:02;;;;;;;;;;;;;;;14.21;100.00;97869.01;1709065;82;20466;-88
2022/09/25 08:11:27;;;;;;;;;;;;;;;14.19;100.00;97876.20;1703150;83;24793;-88
2022/09/25 08:13:53;;;;;;;;;;;;;;;14.28;100.00;97867.95;1692359;83;21932;-88
2022/09/25 08:16:22;;;;;;;;;;;;;;;14.29;100.00;97866.50;1698713;83;26151;-88
2022/09/25 08:19:04;;;;;;;;;;;;;;;14.26;100.00;97865.45;1681986;83;20728;-88
2022/09/25 08:21:33;;;;;;;;;;;;;;;14.22;100.00;97862.78;1724327;82;20278;-88
2022/09/25 08:24:05;;;;;;;;;;;;;;;14.14;100.00;97859.53;1712337;82;24812;-88
2022/09/25 08:26:31;;;;;;;;;;;;;;;14.07;100.00;97858.44;1711504;82;22004;-87
2022/09/25 08:28:58;;;;;;;;;;;;;;;14.02;100.00;97853.30;1713241;82;21209;-89
2022/09/25 08:31:28;;;;;;;;;;;;;;;13.97;100.00;97853.69;1708759;82;24408;-89
2022/09/25 08:33:54;;;;;;;;;;;;;;;13.95;100.00;97854.34;1710077;82;20320;-89
2022/09/25 08:36:20;;;;;;;;;;;;;;;13.95;100.00;97857.45;1694095;83;24776;-89
2022/09/25 08:38:58;;;;;;;;;;;;;;;14.00;100.00;97848.65;1687492;83;22001;-88
2022/09/25 08:41:42;;;;;;;;;;;;;;;14.10;100.00;97842.86;1681049;83;26179;-89
2022/09/25 08:44:32;;;;;;;;;;;;;;;14.18;100.00;97839.05;1704354;82;25287;-88
2022/09/25 08:50:04;;;;;;;;;;;;;;;14.40;100.00;97839.20;1710566;82;24817;-88
2022/09/25 08:52:33;;;;;;;;;;;;;;;14.40;100.00;97837.88;1712519;82;22919;-89
2022/09/25 08:54:59;;;;;;;;;;;;;;;14.42;100.00;97838.55;1710971;82;25975;-88
2022/09/25 08:57:44;;;;;;;;;;;;;;;14.45;100.00;97833.84;1710159;82;24456;-88
2022/09/25 09:00:13;;;;;;;;;;;;;;;14.56;100.00;97838.08;1708556;83;20278;-88
2022/09/25 09:02:49;;;;;;;;;;;;;;;14.76;100.00;97838.79;1697863;82;24827;-88
2022/09/25 09:05:16;;;;;;;;;;;;;;;14.89;100.00;97831.38;1685751;83;21946;-88
2022/09/25 09:07:50;;;;;;;;;;;;;;;14.94;100.00;97829.12;1714415;81;26218;-88
2022/09/25 09:10:18;;;;;;;;;;;;;;;15.07;100.00;97818.53;1691281;83;24487;-88
2022/09/25 09:12:52;;;;;;;;;;;;;;;15.16;100.00;97828.69;1707418;82;20255;-88
2022/09/25 09:15:35;;;;;;;;;;;;;;;15.25;100.00;97828.25;1698593;83;24977;-88
2022/09/25 09:18:03;;;;;;;;;;;;;;;15.29;100.00;97824.33;1706757;82;21935;-88
2022/09/25 09:20:47;;;;;;;;;;;;;;;15.43;100.00;97829.91;1704931;82;26100;-89
2022/09/25 09:23:15;;;;;;;;;;;;;;;15.54;100.00;97824.09;1706399;82;24488;-88
2022/09/25 09:25:48;;;;;;;;;;;;;;;15.64;100.00;97824.83;1703673;83;20254;-89
2022/09/25 09:28:35;;;;;;;;;;;;;;;15.80;100.00;97837.64;1703245;83;24778;-88
2022/09/25 09:31:05;;;;;;;;;;;;;;;15.87;100.00;97836.54;1707266;82;22741;-89
2022/09/25 09:33:47;;;;;;;;;;;;;;;15.89;100.00;97841.98;1706446;83;26042;-89
2022/09/25 09:36:31;;;;;;;;;;;;;;;16.00;100.00;97834.30;1704119;83;24502;-88
2022/09/25 09:39:19;;;;;;;;;;;;;;;16.07;100.00;97835.83;1693615;84;20246;-88
2022/09/25 09:41:48;;;;;;;;;;;;;;;16.09;100.00;97835.99;1704822;83;24821;-89
2022/09/25 09:44:24;;;;;;;;;;;;;;;16.10;100.00;97830.22;1702612;82;21987;-89
2022/09/25 09:47:12;;;;;;;;;;;;;;;16.04;100.00;97829.03;1703241;83;26067;-89
2022/09/25 09:49:51;;;;;;;;;;;;;;;16.08;100.00;97824.30;1678181;83;20189;-89
2022/09/25 09:52:31;;;;;;;;;;;;;;;16.25;100.00;97824.23;1698027;82;20229;-89
2022/09/25 09:55:17;;;;;;;;;;;;;;;16.38;100.00;97826.42;1730760;81;24936;-89
2022/09/25 09:57:47;;;;;;;;;;;;;;;16.48;100.00;97824.97;1702311;82;22046;-89
2022/09/25 10:00:15;;;;;;;;;;;;;;;16.51;100.00;97820.70;1692211;83;25974;-89
2022/09/25 10:02:49;;;;;;;;;;;;;;;16.54;100.00;97820.38;1704573;83;25431;-89
2022/09/25 10:05:23;;;;;;;;;;;;;;;16.51;100.00;97820.70;1705523;82;20212;-89
2022/09/25 10:07:50;;;;;;;;;;;;;;;16.52;100.00;97819.72;1708615;83;24739;-89
2022/09/25 10:10:19;;;;;;;;;;;;;;;16.62;100.00;97821.28;1701717;83;21647;-89
2022/09/25 10:12:47;;;;;;;;;;;;;;;16.73;100.00;97818.34;1707472;83;25976;-89
2022/09/25 10:15:38;;;;;;;;;;;;;;;16.77;100.00;97814.88;1693527;83;25200;-89
2022/09/25 10:18:14;;;;;;;;;;;;;;;16.64;100.00;97812.67;1685152;84;20228;-90
2022/09/25 10:20:49;;;;;;;;;;;;;;;16.60;100.00;97810.03;1687255;84;25674;-89
2022/09/25 10:23:28;;;;;;;;;;;;;;;16.73;100.00;97804.30;1684031;84;22199;-89
2022/09/25 10:26:00;;;;;;;;;;;;;;;16.86;100.00;97808.61;1718227;82;26021;-90
2022/09/25 10:28:34;;;;;;;;;;;;;;;16.91;100.00;97805.51;1687486;83;20207;-90
2022/09/25 10:31:02;;;;;;;;;;;;;;;16.82;100.00;97809.10;1686727;83;20288;-89
2022/09/25 10:33:37;;;;;;;;;;;;;;;16.68;100.00;97806.60;1706867;82;25042;-89
2022/09/25 10:36:05;;;;;;;;;;;;;;;16.69;100.00;97802.45;1703326;83;20149;-89
2022/09/25 10:38:37;;;;;;;;;;;;;;;16.80;100.00;97800.53;1706495;83;26074;-90
2022/09/25 10:41:11;;;;;;;;;;;;;;;16.88;100.00;97803.17;1703831;83;24503;-90
2022/09/25 10:43:54;;;;;;;;;;;;;;;16.96;100.00;97809.81;1701723;82;20241;-89
2022/09/25 10:52:04;;;;;;;;;;;;;;;17.28;100.00;97801.09;1705789;83;26772;-89
2022/09/25 10:54:32;;;;;;;;;;;;;;;17.35;100.00;97804.22;1704141;83;24439;-89
2022/09/25 10:56:59;;;;;;;;;;;;;;;17.35;100.00;97807.36;1703635;83;20226;-88
2022/09/25 10:59:28;;;;;;;;;;;;;;;17.34;100.00;97809.70;1703621;83;24755;-88
2022/09/25 11:01:58;;;;;;;;;;;;;;;17.27;100.00;97808.20;1690880;83;20276;-88
2022/09/25 11:04:29;;;;;;;;;;;;;;;17.30;100.00;97814.47;1687212;83;26037;-89
2022/09/25 11:07:00;;;;;;;;;;;;;;;17.30;100.00;97803.05;1700534;83;24136;-88
2022/09/25 11:09:32;;;;;;;;;;;;;;;17.28;100.00;97791.83;1690015;83;20394;-88
2022/09/25 11:12:07;;;;;;;;;;;;;;;17.27;100.00;97802.08;1701120;83;25635;-88
2022/09/25 11:14:34;;;;;;;;;;;;;;;17.27;100.00;97806.87;1707913;82;21984;-89
2022/09/25 11:17:09;;;;;;;;;;;;;;;17.34;100.00;97800.44;1700369;83;25993;-89
2022/09/25 11:19:36;;;;;;;;;;;;;;;17.36;100.00;97797.94;1694515;83;24498;-89
2022/09/25 11:22:24;;;;;;;;;;;;;;;17.37;100.00;97788.19;1706369;83;20313;-89
2022/09/25 11:24:54;;;;;;;;;;;;;;;17.42;100.00;97785.38;1686455;82;25429;-89
2022/09/25 11:27:31;;;;;;;;;;;;;;;17.46;100.00;97784.54;1717061;82;22093;-88
2022/09/25 11:30:03;;;;;;;;;;;;;;;17.42;100.00;97767.36;1711966;82;22823;-88
2022/09/25 11:32:40;;;;;;;;;;;;;;;17.40;100.00;97775.97;1701615;82;24484;-87
2022/09/25 11:35:29;;;;;;;;;;;;;;;17.38;100.00;97777.45;1705122;82;20466;-88
2022/09/25 11:38:12;;;;;;;;;;;;;;;17.34;100.00;97777.95;1675379;83;20485;-89
2022/09/25 11:43:26;;;;;;;;;;;;;;;17.36;100.00;97773.30;1703775;82;26019;-89
2022/09/25 11:45:57;;;;;;;;;;;;;;;17.17;100.00;97765.71;1653646;83;24089;-89
2022/09/25 11:48:36;;;;;;;;;;;;;;;17.12;100.00;97755.64;1700627;83;20256;-89
2022/09/25 11:51:16;;;;;;;;;;;;;;;17.19;100.00;97753.13;1703451;82;24769;-89
2022/09/25 11:53:59;;;;;;;;;;;;;;;17.13;100.00;97747.52;1704129;82;21996;-89
2022/09/25 11:56:29;;;;;;;;;;;;;;;17.03;100.00;97736.77;1732688;81;26044;-89
2022/09/25 11:59:15;;;;;;;;;;;;;;;16.92;100.00;97740.56;1694948;82;25343;-89
2022/09/25 12:01:44;;;;;;;;;;;;;;;16.86;100.00;97739.89;1693085;82;20281;-88
2022/09/25 12:04:14;;;;;;;;;;;;;;;16.88;100.00;97740.57;1720230;81;25739;-88
2022/09/25 12:06:47;;;;;;;;;;;;;;;17.02;100.00;97731.98;1709147;83;21974;-89
2022/09/25 12:09:17;;;;;;;;;;;;;;;17.17;100.00;97732.66;1722765;81;26804;-89
2022/09/25 12:11:49;;;;;;;;;;;;;;;17.27;100.00;97738.61;1699486;82;24297;-89
2022/09/25 12:14:27;;;;;;;;;;;;;;;17.32;100.00;97729.18;1703527;83;20223;-88
2022/09/25 12:17:11;;;;;;;;;;;;;;;17.35;100.00;97737.27;1697812;82;25035;-88
2022/09/25 12:19:39;;;;;;;;;;;;;;;17.44;100.00;97733.64;1710050;82;21964;-87
2022/09/25 12:22:19;;;;;;;;;;;;;;;17.50;100.00;97736.45;1695401;82;26006;-88
2022/09/25 12:24:47;;;;;;;;;;;;;;;17.56;100.00;97727.81;1701669;82;24559;-88
2022/09/25 12:27:20;;;;;;;;;;;;;;;17.63;100.00;97729.33;1708014;83;20226;-89
2022/09/25 12:29:48;;;;;;;;;;;;;;;17.66;100.00;97735.63;1706369;82;24775;-89
2022/09/25 12:32:39;;;;;;;;;;;;;;;17.69;100.00;97731.80;1699064;82;22159;-88
2022/09/25 12:35:20;;;;;;;;;;;;;;;17.71;100.00;97731.97;1702194;82;26231;-89
2022/09/25 12:37:48;;;;;;;;;;;;;;;17.75;100.00;97735.09;1700780;82;24429;-89
2022/09/25 12:40:16;;;;;;;;;;;;;;;17.77;100.00;97739.73;1687500;82;20207;-88
2022/09/25 12:42:44;;;;;;;;;;;;;;;17.78;100.00;97738.74;1717201;82;24765;-88
2022/09/25 12:45:24;;;;;;;;;;;;;;;17.83;100.00;97739.06;1706396;82;21984;-89
2022/09/25 12:48:01;;;;;;;;;;;;;;;17.85;100.00;97738.37;1714095;82;27014;-88
2022/09/25 12:50:39;;;;;;;;;;;;;;;17.87;100.00;97730.61;1710806;82;25300;-89
2022/09/25 12:53:13;;;;;;;;;;;;;;;17.89;100.00;97728.59;1714171;81;20290;-89
2022/09/25 12:55:49;;;;;;;;;;;;;;;17.92;100.00;97727.44;1689445;84;25486;-89
2022/09/25 12:58:24;;;;;;;;;;;;;;;17.96;100.00;97732.72;1704556;83;22059;-89
2022/09/25 13:01:07;;;;;;;;;;;;;;;17.97;100.00;97739.67;1706822;82;26761;-89
2022/09/25 13:03:42;;;;;;;;;;;;;;;17.91;100.00;97737.70;1704638;82;24525;-89
2022/09/25 13:06:09;;;;;;;;;;;;;;;17.90;100.00;97732.89;1704567;82;20238;-88
2022/09/25 13:08:44;;;;;;;;;;;;;;;17.90;100.00;97728.92;1705705;82;25485;-89
2022/09/25 13:11:15;;;;;;;;;;;;;;;17.91;100.00;97725.78;1703566;83;21975;-89
2022/09/25 13:13:46;;;;;;;;;;;;;;;17.96;100.00;97724.28;1702664;82;25991;-89
2022/09/25 13:16:14;;;;;;;;;;;;;;;18.03;100.00;97726.25;1704683;82;24612;-88